Time;durP1;ratioP1;P1;durP2;ratioP2;P2;SDS_P1;SDS_P2;PMS_P1;PMS_P2;Temp;Humidity;BMP_temperature;BMP_pressure;BME280_temperature;BME280_humidity;BME280_pressure;Samples;Min_cycle;Max_cycle;Signal;HPM_P1;HPM_P2
2023/01/15 00:00:51;;;;;;;41.60;28.33;;;;;;;8.80;59.39;101902.22;5089308;28;20476;-74
2023/01/15 00:03:17;;;;;;;43.33;28.20;;;;;;;8.93;59.40;101907.31;5089949;28;20397;-75
2023/01/15 00:05:42;;;;;;;41.95;28.00;;;;;;;8.89;58.88;101906.72;5074117;28;20396;-75
2023/01/15 00:08:08;;;;;;;43.77;28.93;;;;;;;8.90;59.18;101902.28;5090973;28;20370;-74
2023/01/15 00:10:34;;;;;;;47.77;30.03;;;;;;;8.89;59.34;101905.91;5090804;28;20374;-74
2023/01/15 00:12:59;;;;;;;43.17;30.37;;;;;;;8.89;59.24;101900.59;5090588;28;20793;-75
2023/01/15 00:15:25;;;;;;;42.27;28.77;;;;;;;8.91;58.75;101907.47;5090648;28;20397;-74
2023/01/15 00:17:50;;;;;;;39.45;26.63;;;;;;;8.97;59.04;101904.28;5090544;28;20401;-75
2023/01/15 00:20:16;;;;;;;35.10;22.55;;;;;;;9.00;58.90;101905.81;5090589;28;20376;-74
2023/01/15 00:22:41;;;;;;;34.93;21.90;;;;;;;9.05;58.75;101908.09;5090752;28;20458;-75
2023/01/15 00:27:53;;;;;;;35.17;22.70;;;;;;;8.87;59.07;101905.19;5075120;28;20864;-75
2023/01/15 00:30:18;;;;;;;37.37;23.23;;;;;;;8.91;59.11;101906.59;5090405;28;20472;-75
2023/01/15 00:32:46;;;;;;;34.83;22.75;;;;;;;8.93;58.92;101916.09;5090157;28;20491;-75
2023/01/15 00:35:22;;;;;;;36.17;24.50;;;;;;;8.71;59.39;101910.91;5089423;28;20476;-75
2023/01/15 00:37:48;;;;;;;33.20;23.35;;;;;;;8.69;59.75;101910.22;5073683;28;20538;-75
2023/01/15 00:40:15;;;;;;;33.57;22.60;;;;;;;8.70;59.53;101907.44;5088885;28;20457;-74
2023/01/15 00:42:41;;;;;;;31.45;21.70;;;;;;;8.72;59.52;101913.44;5090268;28;20781;-75
2023/01/15 00:45:10;;;;;;;33.93;22.47;;;;;;;8.74;59.65;101906.22;5089891;28;20454;-75
2023/01/15 00:47:41;;;;;;;30.45;21.80;;;;;;;8.78;59.62;101909.44;5090128;28;20384;-75
2023/01/15 00:50:10;;;;;;;33.33;22.20;;;;;;;8.76;59.56;101908.72;5089522;28;20392;-75
2023/01/15 00:52:36;;;;;;;33.22;22.15;;;;;;;8.69;59.40;101904.94;5089945;28;20383;-74
2023/01/15 00:55:01;;;;;;;27.73;20.35;;;;;;;8.58;59.97;101921.69;5089951;28;20460;-75
2023/01/15 00:57:27;;;;;;;26.53;19.10;;;;;;;8.39;60.91;101909.09;5089264;28;20472;-74
2023/01/15 00:59:52;;;;;;;30.17;20.02;;;;;;;8.35;60.91;101910.31;5089774;28;20373;-74
2023/01/15 01:02:18;;;;;;;28.60;19.93;;;;;;;8.32;60.75;101916.72;5089907;28;20409;-74
2023/01/15 01:04:43;;;;;;;27.00;19.93;;;;;;;8.47;60.81;101908.53;5089958;28;20481;-75
2023/01/15 01:07:09;;;;;;;28.15;19.65;;;;;;;8.54;60.04;101912.34;5088902;28;20377;-74
2023/01/15 01:09:34;;;;;;;28.15;20.27;;;;;;;8.45;60.51;101900.72;5089905;28;20450;-75
2023/01/15 01:12:00;;;;;;;29.10;20.90;;;;;;;8.42;60.77;101909.72;5089843;28;20369;-75
2023/01/15 01:14:26;;;;;;;29.93;21.30;;;;;;;8.48;60.52;101895.19;5089417;28;20392;-75
2023/01/15 01:16:52;;;;;;;29.70;21.33;;;;;;;8.57;60.57;101901.50;5090184;28;20377;-76
2023/01/15 01:19:20;;;;;;;29.97;21.17;;;;;;;8.50;60.08;101893.25;5089907;28;20427;-75
2023/01/15 01:21:47;;;;;;;31.25;21.67;;;;;;;8.47;60.20;101890.03;5093617;28;20405;-75
2023/01/15 01:24:16;;;;;;;32.35;22.75;;;;;;;8.38;60.86;101887.13;5092138;28;20779;-75
2023/01/15 01:26:44;;;;;;;34.35;24.20;;;;;;;8.23;60.92;101888.41;5089995;28;20780;-75
2023/01/15 01:29:14;;;;;;;42.42;29.70;;;;;;;8.22;61.59;101894.66;5090168;28;20410;-75
2023/01/15 01:31:39;;;;;;;46.20;32.20;;;;;;;8.14;61.80;101899.69;5088876;28;20766;-75
2023/01/15 01:34:04;;;;;;;48.67;32.53;;;;;;;8.13;61.64;101896.22;5090246;28;20888;-75
2023/01/15 01:36:34;;;;;;;43.07;30.80;;;;;;;8.13;62.16;101896.22;5089973;28;20853;-75
2023/01/15 01:39:01;;;;;;;37.50;26.83;;;;;;;8.21;61.89;101883.25;5091958;28;20438;-75
2023/01/15 01:41:26;;;;;;;38.60;27.33;;;;;;;8.19;61.58;101879.91;5091466;28;20373;-75
2023/01/15 01:43:56;;;;;;;37.63;25.70;;;;;;;8.12;61.56;101869.94;5090047;28;20377;-75
2023/01/15 01:46:23;;;;;;;35.75;23.27;;;;;;;8.04;62.33;101881.97;5090219;28;20369;-75
2023/01/15 01:48:53;;;;;;;33.88;22.95;;;;;;;8.02;62.52;101875.97;5090123;28;20369;-74
2023/01/15 01:51:23;;;;;;;33.88;23.17;;;;;;;8.08;62.26;101872.00;5089663;28;20377;-75
2023/01/15 01:53:48;;;;;;;33.85;23.05;;;;;;;8.09;61.90;101872.84;5089914;28;20380;-75
2023/01/15 01:56:16;;;;;;;34.45;23.75;;;;;;;8.08;61.96;101877.28;5090515;28;20369;-74
2023/01/15 01:58:46;;;;;;;38.70;25.08;;;;;;;8.04;62.16;101870.56;5088931;28;20399;-74
2023/01/15 02:01:12;;;;;;;37.03;24.27;;;;;;;8.17;61.97;101873.06;5089045;28;20377;-74
2023/01/15 02:03:38;;;;;;;36.17;23.70;;;;;;;8.24;61.86;101875.06;5090283;28;20404;-74
2023/01/15 02:06:07;;;;;;;33.60;22.70;;;;;;;8.30;61.54;101864.94;5090194;28;20849;-74
2023/01/15 02:08:34;;;;;;;40.05;25.80;;;;;;;8.28;61.64;101862.44;5092043;28;20381;-74
2023/01/15 02:11:00;;;;;;;35.72;23.38;;;;;;;8.29;61.49;101869.41;5093473;28;20377;-75
2023/01/15 02:13:49;;;;;;;35.05;23.92;;;;;;;8.31;62.01;101856.06;5093345;28;20484;-74
2023/01/15 02:16:22;;;;;;;38.22;24.23;;;;;;;8.46;60.82;101864.56;5093301;28;20810;-75
2023/01/15 02:19:23;;;;;;;36.42;23.10;;;;;;;8.51;61.34;101855.28;5093650;28;20456;-75
2023/01/15 02:22:10;;;;;;;34.97;23.75;;;;;;;8.33;61.50;101865.53;5087684;28;20401;-75
2023/01/15 02:24:49;;;;;;;32.78;22.83;;;;;;;8.31;62.01;101856.06;5093553;28;20373;-74
2023/01/15 02:27:17;;;;;;;37.60;24.27;;;;;;;8.42;61.44;101848.13;5093168;28;20374;-75
2023/01/15 02:29:54;;;;;;;38.70;23.60;;;;;;;8.49;61.17;101857.22;5093179;28;20447;-75
2023/01/15 02:32:36;;;;;;;37.60;23.52;;;;;;;8.37;61.36;101844.97;5095763;28;20945;-74
2023/01/15 02:35:28;;;;;;;40.30;24.15;;;;;;;8.30;62.07;101841.19;5097679;28;20913;-74
2023/01/15 02:37:58;;;;;;;41.38;23.98;;;;;;;8.38;61.20;101842.22;5046639;28;20387;-74
2023/01/15 02:40:25;;;;;;;39.03;24.60;;;;;;;8.35;61.55;101836.34;5077211;28;20462;-74
2023/01/15 02:42:52;;;;;;;41.65;24.25;;;;;;;8.35;61.62;101841.63;5074765;28;20402;-74
2023/01/15 02:45:26;;;;;;;40.83;24.13;;;;;;;8.34;61.51;101835.53;5072091;28;20461;-75
2023/01/15 02:48:01;;;;;;;46.38;26.40;;;;;;;8.32;61.60;101834.81;5073277;28;20366;-75
2023/01/15 02:50:34;;;;;;;42.97;25.45;;;;;;;8.41;61.90;101846.44;5072594;28;20683;-75
2023/01/15 02:53:04;;;;;;;45.55;25.77;;;;;;;8.45;61.15;101842.59;5071838;28;20680;-75
2023/01/15 02:55:36;;;;;;;43.60;25.80;;;;;;;8.42;61.57;101833.09;5071836;28;20436;-75
2023/01/15 02:58:05;;;;;;;43.20;24.73;;;;;;;8.30;61.70;101830.59;5072774;28;20374;-75
2023/01/15 03:00:35;;;;;;;45.03;25.58;;;;;;;8.25;62.00;101844.22;5072823;28;20668;-75
2023/01/15 03:03:13;;;;;;;44.30;25.13;;;;;;;8.32;61.98;101836.59;5072544;28;20463;-75
2023/01/15 03:05:44;;;;;;;41.42;24.20;;;;;;;8.38;61.44;101839.56;5072690;28;20445;-75
2023/01/15 03:08:10;;;;;;;41.78;23.13;;;;;;;8.33;61.85;101840.94;5072674;28;20508;-75
2023/01/15 03:10:45;;;;;;;40.95;24.02;;;;;;;8.31;61.55;101840.22;5074650;28;20477;-74
2023/01/15 03:13:19;;;;;;;41.97;24.80;;;;;;;8.39;61.95;101838.63;5073886;28;20378;-75
2023/01/15 03:18:55;;;;;;;40.90;24.98;;;;;;;8.31;61.98;101846.34;5072420;28;20438;-74
2023/01/15 03:21:27;;;;;;;46.40;26.52;;;;;;;8.35;61.45;101846.91;5071684;28;20708;-75
2023/01/15 03:23:55;;;;;;;43.97;26.10;;;;;;;8.33;61.59;101848.84;5072042;28;20828;-75
2023/01/15 03:26:20;;;;;;;42.28;25.65;;;;;;;8.35;61.38;101850.38;5071880;28;20858;-75
2023/01/15 03:28:47;;;;;;;42.27;25.60;;;;;;;8.31;61.32;101848.16;5076361;28;20392;-75
2023/01/15 03:31:13;;;;;;;44.03;26.10;;;;;;;8.34;61.84;101845.25;5072760;28;20387;-75
2023/01/15 03:33:39;;;;;;;46.60;26.80;;;;;;;8.21;61.85;101843.63;5088681;28;20446;-75
2023/01/15 03:36:05;;;;;;;45.70;26.27;;;;;;;8.14;61.63;101841.59;5092037;28;20491;-75
2023/01/15 03:38:36;;;;;;;46.15;26.55;;;;;;;8.00;62.31;101843.56;5091953;28;20702;-75
2023/01/15 03:41:33;;;;;;;45.75;26.13;;;;;;;8.01;62.34;101845.28;5092028;28;20381;-75
2023/01/15 03:44:26;;;;;;;47.83;25.50;;;;;;;8.04;62.21;101842.34;5064058;28;20413;-75
2023/01/15 03:46:58;;;;;;;40.97;24.45;;;;;;;7.98;62.23;101842.88;5092033;28;20453;-75
2023/01/15 03:49:23;;;;;;;48.60;25.45;;;;;;;7.96;62.50;101844.81;5091920;28;20773;-75
2023/01/15 03:51:55;;;;;;;58.03;25.63;;;;;;;7.90;62.71;101837.38;5090378;28;20409;-75
2023/01/15 03:54:34;;;;;;;63.47;25.77;;;;;;;7.83;63.06;101841.47;5091298;28;20409;-75
2023/01/15 03:57:28;;;;;;;70.72;26.00;;;;;;;7.71;63.31;101834.56;5088952;28;20666;-75
2023/01/15 03:59:58;;;;;;;56.70;26.55;;;;;;;7.66;63.46;101846.31;5052703;28;20381;-75
2023/01/15 04:02:26;;;;;;;48.85;25.83;;;;;;;7.78;63.23;101838.38;5089785;28;20394;-75
2023/01/15 04:04:53;;;;;;;43.35;25.48;;;;;;;7.90;63.42;101834.72;5089060;28;20387;-75
2023/01/15 04:07:19;;;;;;;49.33;29.35;;;;;;;7.95;62.68;101843.13;5088992;28;20373;-75
2023/01/15 04:09:45;;;;;;;50.72;32.55;;;;;;;7.94;62.98;101830.88;5089739;28;20409;-75
2023/01/15 04:12:11;;;;;;;51.75;31.02;;;;;;;7.88;62.82;101841.09;5089824;28;20401;-75
2023/01/15 04:14:36;;;;;;;48.30;32.30;;;;;;;7.87;62.74;101831.50;5089970;28;20384;-75
2023/01/15 04:17:02;;;;;;;54.97;37.30;;;;;;;7.80;63.11;101837.28;5090942;28;20711;-75
2023/01/15 04:19:27;;;;;;;56.83;38.67;;;;;;;7.72;63.54;101841.50;5090791;28;20377;-75
2023/01/15 04:21:53;;;;;;;58.90;39.23;;;;;;;7.79;63.37;101842.69;5090368;28;20397;-75
2023/01/15 04:24:37;;;;;;;74.10;54.10;;;;;;;7.64;63.50;101832.41;5090748;28;20470;-75
2023/01/15 04:27:03;;;;;;;68.97;45.53;;;;;;;7.67;63.72;101839.25;5089640;28;20413;-75
2023/01/15 04:29:28;;;;;;;66.83;43.67;;;;;;;7.77;63.51;101849.88;5090836;28;20463;-75
2023/01/15 04:31:56;;;;;;;66.30;41.40;;;;;;;7.89;63.38;101851.53;5090957;28;20711;-75
2023/01/15 04:34:24;;;;;;;72.30;40.38;;;;;;;7.87;62.92;101845.56;5090934;28;20754;-75
2023/01/15 04:36:49;;;;;;;70.13;40.37;;;;;;;7.87;63.36;101856.13;5090557;28;20863;-75
2023/01/15 04:39:15;;;;;;;63.30;38.13;;;;;;;7.88;63.09;101856.94;5089460;28;20453;-75
2023/01/15 04:44:26;;;;;;;62.63;35.63;;;;;;;7.91;63.22;101857.53;5090374;28;20388;-76
2023/01/15 04:46:53;;;;;;;63.20;30.27;;;;;;;7.91;62.86;101856.72;5090271;28;20725;-75
2023/01/15 04:49:18;;;;;;;57.53;30.95;;;;;;;7.85;63.03;101855.41;5089676;28;20396;-75
2023/01/15 04:51:44;;;;;;;55.00;29.65;;;;;;;7.81;63.24;101852.19;5090343;28;20853;-75
2023/01/15 04:54:12;;;;;;;55.70;29.52;;;;;;;7.75;63.25;101857.94;5090629;28;20380;-75
2023/01/15 04:56:40;;;;;;;53.45;30.05;;;;;;;7.72;63.71;101863.44;5090744;28;20388;-75
2023/01/15 04:59:06;;;;;;;58.42;31.63;;;;;;;7.77;63.29;101857.81;5093968;28;20369;-75
2023/01/15 05:01:32;;;;;;;54.38;32.72;;;;;;;7.85;63.55;101861.50;5091934;28;20370;-75
2023/01/15 05:03:58;;;;;;;56.25;37.10;;;;;;;7.95;63.18;101861.59;5090554;28;20401;-75
2023/01/15 05:06:24;;;;;;;51.27;35.30;;;;;;;8.03;62.93;101864.47;5090257;28;20470;-75
2023/01/15 05:08:50;;;;;;;62.37;43.13;;;;;;;8.13;62.73;101859.25;5090451;28;20406;-75
2023/01/15 05:11:15;;;;;;;71.37;53.77;;;;;;;8.06;62.57;101851.97;5089540;28;20838;-75
2023/01/15 05:13:41;;;;;;;69.20;50.75;;;;;;;8.08;62.44;101863.25;5090096;28;20832;-75
2023/01/15 05:16:37;;;;;;;66.18;47.75;;;;;;;8.08;62.59;101858.78;5092453;28;20800;-75
2023/01/15 05:19:06;;;;;;;64.95;48.40;;;;;;;8.14;62.57;101860.94;5070208;28;20381;-75
2023/01/15 05:21:34;;;;;;;65.35;47.10;;;;;;;8.23;62.53;101862.00;5090109;28;20377;-76
2023/01/15 05:24:01;;;;;;;65.50;46.97;;;;;;;8.23;62.31;101854.06;5088988;28;20468;-75
2023/01/15 05:26:30;;;;;;;61.50;44.17;;;;;;;8.24;62.15;101859.19;5090505;28;20848;-75
2023/01/15 05:28:57;;;;;;;54.45;38.55;;;;;;;8.26;62.50;101863.53;5090114;28;20409;-76
2023/01/15 05:31:24;;;;;;;49.70;35.70;;;;;;;8.15;62.45;101852.03;5090312;28;20865;-75
2023/01/15 05:33:50;;;;;;;56.38;37.50;;;;;;;8.11;62.65;101855.06;5090314;28;20366;-75
2023/01/15 05:36:22;;;;;;;62.13;40.40;;;;;;;8.11;62.84;101852.44;5089812;28;20927;-75
2023/01/15 05:38:48;;;;;;;48.58;31.25;;;;;;;8.11;62.46;101849.78;5089628;28;20435;-75
2023/01/15 05:44:05;;;;;;;50.28;33.45;;;;;;;8.29;62.47;101839.50;5092963;28;20833;-74
2023/01/15 05:46:33;;;;;;;50.38;33.65;;;;;;;8.35;61.92;101833.72;5093653;28;20737;-74
2023/01/15 05:49:04;;;;;;;44.90;29.50;;;;;;;8.36;61.55;101841.50;5093782;28;20442;-75
2023/01/15 05:51:30;;;;;;;44.85;28.55;;;;;;;8.33;61.80;101838.28;5093832;28;20415;-74
2023/01/15 05:53:58;;;;;;;43.45;28.50;;;;;;;8.34;62.16;101840.81;5094295;28;20396;-74
2023/01/15 05:56:24;;;;;;;47.00;28.97;;;;;;;8.38;61.90;101844.84;5093654;28;20380;-74
2023/01/15 05:58:51;;;;;;;43.20;26.13;;;;;;;8.38;61.85;101839.56;5093719;28;20473;-74
2023/01/15 06:01:16;;;;;;;42.72;25.33;;;;;;;8.35;61.65;101833.72;5093179;28;20408;-75
2023/01/15 06:03:42;;;;;;;42.97;25.60;;;;;;;8.22;62.13;101836.53;5084078;28;20417;-74
2023/01/15 06:06:17;;;;;;;46.00;28.50;;;;;;;8.19;62.51;101844.69;5078497;28;20395;-75
2023/01/15 06:08:43;;;;;;;44.92;28.05;;;;;;;8.20;62.37;101831.38;5074016;28;20401;-75
2023/01/15 06:11:10;;;;;;;42.50;26.25;;;;;;;8.18;62.06;101840.41;5072388;28;20391;-75
2023/01/15 06:13:35;;;;;;;40.67;22.88;;;;;;;8.06;62.45;101830.84;5074452;28;20387;-75
2023/01/15 06:16:02;;;;;;;37.63;22.13;;;;;;;8.04;62.66;101841.53;5072844;28;20475;-74
2023/01/15 06:18:28;;;;;;;38.75;22.85;;;;;;;8.01;62.84;101840.00;5072901;28;20744;-74
2023/01/15 06:20:53;;;;;;;40.50;23.05;;;;;;;8.07;62.76;101846.56;5073967;28;20383;-74
2023/01/15 06:23:19;;;;;;;40.10;23.27;;;;;;;8.12;62.80;101836.47;5076362;28;20411;-76
2023/01/15 06:25:44;;;;;;;41.53;23.63;;;;;;;8.21;62.23;101840.13;5090909;28;20397;-75
2023/01/15 06:28:12;;;;;;;47.93;24.20;;;;;;;8.19;62.38;101842.91;5092972;28;20734;-74
2023/01/15 06:30:38;;;;;;;44.30;24.25;;;;;;;8.21;62.55;101841.00;5089287;28;20467;-75
2023/01/15 06:33:05;;;;;;;44.43;23.83;;;;;;;8.26;62.42;101837.94;5090476;28;20374;-75
2023/01/15 06:35:31;;;;;;;42.63;24.75;;;;;;;8.35;62.19;101839.00;5074911;28;20946;-75
2023/01/15 06:37:56;;;;;;;43.63;24.50;;;;;;;8.35;61.96;101841.63;5092682;28;20500;-75
2023/01/15 06:40:22;;;;;;;45.50;24.97;;;;;;;8.37;62.00;101842.34;5083017;28;20825;-76
2023/01/15 06:48:23;;;;;;;65.97;36.28;;;;;;;8.32;62.58;101841.88;5079567;28;20467;-75
2023/01/15 06:50:49;;;;;;;48.47;26.88;;;;;;;8.40;62.23;101837.63;5084120;28;20531;-75
2023/01/15 06:53:14;;;;;;;44.00;25.53;;;;;;;8.44;61.91;101840.06;5088087;28;20484;-76
2023/01/15 06:55:39;;;;;;;41.77;23.73;;;;;;;8.33;62.33;101849.69;5075738;28;20450;-75
2023/01/15 06:58:05;;;;;;;36.85;21.20;;;;;;;8.17;62.66;101846.63;5085661;28;20395;-75
2023/01/15 07:00:30;;;;;;;43.10;23.63;;;;;;;8.05;62.67;101845.84;5072806;28;20419;-75
2023/01/15 07:02:59;;;;;;;43.03;23.77;;;;;;;8.15;62.84;101853.84;5073072;28;20411;-75
2023/01/15 07:05:24;;;;;;;46.20;27.27;;;;;;;8.24;63.00;101853.91;5075512;28;20391;-75
2023/01/15 07:07:50;;;;;;;42.20;23.97;;;;;;;8.26;62.58;101848.50;5072063;28;20751;-75
2023/01/15 07:10:16;;;;;;;44.53;23.77;;;;;;;8.29;62.67;101839.50;5077182;28;20394;-75
2023/01/15 07:12:41;;;;;;;38.40;21.75;;;;;;;8.22;62.59;101853.22;5073358;28;20391;-75
2023/01/15 07:15:07;;;;;;;38.00;22.55;;;;;;;8.23;62.48;101854.06;5082732;28;20824;-75
2023/01/15 07:17:32;;;;;;;36.38;22.45;;;;;;;8.28;62.53;101854.50;5073199;28;20387;-75
2023/01/15 07:19:58;;;;;;;40.33;22.97;;;;;;;8.31;62.66;101846.34;5074496;28;20387;-76
2023/01/15 07:22:23;;;;;;;35.97;21.77;;;;;;;8.26;62.56;101843.22;5074626;28;20817;-75
2023/01/15 07:24:49;;;;;;;45.45;24.98;;;;;;;8.18;62.67;101840.41;5080829;28;20934;-75
2023/01/15 07:27:14;;;;;;;42.33;23.30;;;;;;;8.34;62.83;101842.63;5090175;28;20385;-75
2023/01/15 07:29:40;;;;;;;39.77;22.63;;;;;;;8.38;62.41;101849.31;5087328;28;20460;-75
2023/01/15 07:32:05;;;;;;;43.67;24.10;;;;;;;8.39;62.23;101851.84;5073231;28;20391;-75
2023/01/15 07:34:31;;;;;;;40.17;23.37;;;;;;;8.42;62.18;101848.94;5079078;28;20940;-76
2023/01/15 07:36:56;;;;;;;42.97;23.17;;;;;;;8.42;62.18;101835.72;5089555;28;20396;-75
2023/01/15 07:39:22;;;;;;;39.00;22.53;;;;;;;8.40;62.57;101836.81;5085225;28;20491;-76
2023/01/15 07:50:11;;;;;;;40.80;21.40;;;;;;;8.45;62.22;101829.38;5082338;28;20472;-75
2023/01/15 07:52:37;;;;;;;39.72;21.13;;;;;;;8.51;62.48;101844.69;5079402;28;20377;-75
2023/01/15 07:55:03;;;;;;;37.35;21.00;;;;;;;8.51;61.90;101842.06;5081538;28;20407;-76
2023/01/15 07:57:29;;;;;;;30.10;18.48;;;;;;;8.54;61.61;101841.81;5080303;28;20417;-75
2023/01/15 07:59:54;;;;;;;29.85;18.10;;;;;;;8.55;62.12;101847.94;5085207;28;20392;-75
2023/01/15 08:02:20;;;;;;;31.23;19.75;;;;;;;8.55;61.68;101840.00;5079176;28;20407;-76
2023/01/15 08:04:46;;;;;;;30.48;17.95;;;;;;;8.50;61.92;101847.47;5088038;28;20389;-75
2023/01/15 08:07:13;;;;;;;31.27;18.90;;;;;;;8.38;62.07;101844.03;5086099;28;20387;-75
2023/01/15 08:09:38;;;;;;;28.52;17.30;;;;;;;8.49;62.05;101848.44;5071484;28;20852;-75
2023/01/15 08:17:33;;;;;;;27.48;17.02;;;;;;;8.62;62.08;101843.81;5076859;28;20701;-76
2023/01/15 08:20:00;;;;;;;25.73;16.83;;;;;;;8.59;61.42;101844.91;5078976;28;20480;-74
2023/01/15 08:22:25;;;;;;;26.70;17.25;;;;;;;8.65;61.66;101843.56;5079272;28;20422;-75
2023/01/15 08:24:51;;;;;;;27.93;17.27;;;;;;;8.72;61.46;101838.59;5082155;28;20385;-74
2023/01/15 08:27:16;;;;;;;27.60;17.38;;;;;;;8.78;61.61;101841.53;5080952;28;20371;-75
2023/01/15 08:29:42;;;;;;;27.67;17.90;;;;;;;8.75;61.56;101841.81;5080264;28;20751;-75
2023/01/15 08:32:07;;;;;;;24.17;15.17;;;;;;;8.84;61.19;101840.19;5081353;28;20393;-75
2023/01/15 08:34:33;;;;;;;25.83;16.38;;;;;;;8.78;60.96;101830.13;5083063;28;20396;-75
2023/01/15 08:36:59;;;;;;;26.63;17.15;;;;;;;8.80;61.68;101836.13;5091479;28;20373;-75
2023/01/15 08:39:28;;;;;;;20.07;13.17;;;;;;;8.97;62.29;101834.69;5092101;28;20392;-74
2023/01/15 08:41:55;;;;;;;27.40;17.85;;;;;;;9.22;61.45;101838.69;5084087;28;20389;-75
2023/01/15 08:44:22;;;;;;;26.92;17.00;;;;;;;9.03;61.38;101830.69;5078221;28;21641;-75
2023/01/15 08:46:48;;;;;;;27.42;18.10;;;;;;;8.98;60.78;101847.78;5077554;28;20381;-74
2023/01/15 08:49:14;;;;;;;31.25;18.17;;;;;;;8.96;60.89;101833.84;5077120;28;20415;-74
2023/01/15 08:51:40;;;;;;;28.30;17.58;;;;;;;8.93;61.62;101835.91;5078482;28;20393;-75
2023/01/15 08:54:05;;;;;;;27.88;16.77;;;;;;;8.87;60.92;101836.44;5085038;28;20386;-74
2023/01/15 08:56:31;;;;;;;27.03;17.30;;;;;;;8.81;61.17;101832.53;5081517;28;20419;-75
2023/01/15 08:58:56;;;;;;;26.07;16.53;;;;;;;8.71;61.19;101827.16;5078084;28;20464;-75
2023/01/15 09:01:22;;;;;;;34.60;20.02;;;;;;;8.71;61.67;101837.72;5078709;28;20409;-75
2023/01/15 09:03:47;;;;;;;27.63;16.87;;;;;;;8.78;61.11;101835.41;5080313;28;20429;-75
2023/01/15 09:06:13;;;;;;;33.83;19.63;;;;;;;8.86;60.77;101832.09;5082810;28;20442;-75
2023/01/15 09:08:39;;;;;;;30.83;18.75;;;;;;;8.86;60.79;101835.63;5081823;28;20387;-74
2023/01/15 09:11:08;;;;;;;25.60;15.63;;;;;;;8.64;61.49;101826.00;5077572;28;20958;-75
2023/01/15 09:13:36;;;;;;;28.70;16.83;;;;;;;8.72;61.45;101820.91;5081914;28;20386;-75
2023/01/15 09:16:04;;;;;;;30.85;18.60;;;;;;;8.74;61.47;101821.63;5090609;28;20390;-75
2023/01/15 09:18:30;;;;;;;27.05;16.02;;;;;;;8.70;61.68;101808.81;5091742;28;20391;-75
2023/01/15 09:20:55;;;;;;;26.77;15.67;;;;;;;8.71;61.08;101808.66;5096248;28;20453;-76
2023/01/15 09:23:21;;;;;;;28.63;17.03;;;;;;;8.69;61.21;101793.91;5089839;28;20407;-74
2023/01/15 09:25:54;;;;;;;32.95;19.35;;;;;;;8.66;61.45;101795.03;5085213;28;20385;-75
2023/01/15 09:28:19;;;;;;;35.72;20.65;;;;;;;8.66;61.66;101800.31;5084217;28;20414;-75
2023/01/15 09:30:45;;;;;;;37.60;20.95;;;;;;;8.74;61.18;101792.53;5085279;28;20783;-74
2023/01/15 09:33:10;;;;;;;43.63;24.27;;;;;;;8.73;61.41;101782.09;5083156;28;20385;-75
2023/01/15 09:35:36;;;;;;;43.17;24.10;;;;;;;8.73;61.29;101782.94;5088984;28;20419;-74
2023/01/15 09:38:02;;;;;;;43.45;24.75;;;;;;;8.73;61.10;101777.66;5090643;28;20373;-75
2023/01/15 09:40:47;;;;;;;53.22;28.25;;;;;;;8.72;61.51;101783.91;5082959;28;20403;-75
2023/01/15 09:43:54;;;;;;;51.38;28.98;;;;;;;8.74;61.73;101768.75;5081581;28;20404;-75
2023/01/15 09:46:29;;;;;;;54.80;29.90;;;;;;;8.82;61.10;101770.72;5079967;28;20858;-75
2023/01/15 09:49:24;;;;;;;52.85;28.95;;;;;;;8.86;61.22;101761.56;5079740;28;20407;-75
2023/01/15 09:52:04;;;;;;;59.40;32.90;;;;;;;8.94;60.91;101760.91;5080725;28;20381;-75
2023/01/15 09:54:32;;;;;;;54.05;30.63;;;;;;;8.98;61.07;101757.88;5077845;28;20458;-75
2023/01/15 09:56:58;;;;;;;50.63;28.67;;;;;;;9.00;60.62;101755.06;5084777;28;20438;-74
2023/01/15 09:59:40;;;;;;;47.80;27.50;;;;;;;9.03;60.74;101752.16;5082382;28;20410;-75
2023/01/15 10:02:36;;;;;;;48.25;27.65;;;;;;;9.03;60.39;101749.53;5081054;28;20440;-75
2023/01/15 10:05:10;;;;;;;48.05;28.17;;;;;;;9.04;60.44;101751.22;5083898;28;20383;-75
2023/01/15 10:07:59;;;;;;;49.33;27.95;;;;;;;9.14;60.39;101733.53;5083551;28;20392;-75
2023/01/15 10:10:32;;;;;;;49.13;27.23;;;;;;;9.17;60.32;101729.78;5092823;28;20381;-75
2023/01/15 10:13:08;;;;;;;42.97;25.42;;;;;;;9.19;60.04;101727.84;5092252;28;20377;-75
2023/01/15 10:15:43;;;;;;;43.27;25.30;;;;;;;9.13;60.67;101725.75;5092770;28;20427;-76
2023/01/15 10:18:27;;;;;;;48.65;26.77;;;;;;;9.11;60.25;101725.88;5091635;28;20472;-75
2023/01/15 10:21:09;;;;;;;39.88;23.98;;;;;;;9.05;60.33;101715.84;5091872;28;20713;-75
2023/01/15 10:24:01;;;;;;;44.03;25.05;;;;;;;9.09;60.03;101717.25;5082081;28;20399;-76
2023/01/15 10:26:53;;;;;;;37.72;21.98;;;;;;;9.07;60.48;101705.94;5081176;28;20433;-75
2023/01/15 10:29:52;;;;;;;43.85;26.52;;;;;;;9.14;59.92;101708.91;5079884;28;20413;-74
2023/01/15 10:32:18;;;;;;;41.78;25.63;;;;;;;9.26;59.97;101713.09;5081119;28;20377;-76
2023/01/15 10:35:28;;;;;;;41.50;26.13;;;;;;;9.31;60.13;101713.53;5081237;28;20391;-75
2023/01/15 10:38:00;;;;;;;36.33;22.00;;;;;;;9.32;59.49;101693.19;5079193;28;20391;-75
2023/01/15 10:40:59;;;;;;;37.17;22.73;;;;;;;9.27;59.50;101698.88;5080522;28;20564;-75
2023/01/15 10:43:46;;;;;;;38.50;23.07;;;;;;;9.28;59.40;101691.81;5081229;28;20870;-75
2023/01/15 10:46:27;;;;;;;37.38;22.27;;;;;;;9.28;59.78;101703.22;5087208;28;21016;-75
2023/01/15 10:49:05;;;;;;;34.65;20.92;;;;;;;9.32;59.74;101685.25;5083933;28;20392;-75
2023/01/15 10:51:41;;;;;;;27.58;18.73;;;;;;;9.31;59.55;101672.97;5089690;28;20413;-75
2023/01/15 10:54:12;;;;;;;29.50;20.47;;;;;;;9.23;59.97;101660.47;5086299;28;20444;-78
2023/01/15 10:56:47;;;;;;;30.70;19.85;;;;;;;9.27;59.98;101675.06;5088183;28;20389;-75
2023/01/15 10:59:29;;;;;;;37.38;22.75;;;;;;;9.34;59.73;101670.06;5086643;28;20385;-75
2023/01/15 11:01:58;;;;;;;34.70;20.42;;;;;;;9.33;59.59;101671.06;5086899;28;20915;-75
2023/01/15 11:04:30;;;;;;;32.67;19.57;;;;;;;9.32;59.73;101661.44;5087320;28;20399;-75
2023/01/15 11:06:56;;;;;;;30.58;18.00;;;;;;;9.29;60.31;101651.97;5087498;28;20397;-75
2023/01/15 11:09:34;;;;;;;28.70;18.17;;;;;;;9.14;60.01;101653.34;5087549;28;20451;-75
2023/01/15 11:20:47;;;;;;;28.37;18.03;;;;;;;9.31;59.45;101639.44;5086438;28;20478;-75
2023/01/15 11:23:15;;;;;;;28.43;16.63;;;;;;;9.36;59.36;101633.72;5084587;28;20457;-75
2023/01/15 11:25:49;;;;;;;25.92;16.70;;;;;;;9.29;59.25;101630.81;5086687;28;20513;-75
2023/01/15 11:28:16;;;;;;;23.40;15.90;;;;;;;9.26;59.63;101638.19;5085583;28;20409;-77
2023/01/15 11:30:43;;;;;;;25.38;16.67;;;;;;;9.32;59.54;101630.53;5087920;28;20397;-75
2023/01/15 11:33:25;;;;;;;33.03;18.88;;;;;;;9.45;59.00;101618.81;5088318;28;20385;-76
2023/01/15 11:35:57;;;;;;;29.42;17.90;;;;;;;9.47;58.78;101622.16;5087375;28;20415;-76
2023/01/15 11:38:24;;;;;;;29.13;18.75;;;;;;;9.49;58.68;101617.56;5085753;28;20714;-75
2023/01/15 11:40:58;;;;;;;29.05;18.13;;;;;;;9.48;58.74;101611.44;5080822;28;20391;-75
2023/01/15 11:51:56;;;;;;;32.47;19.30;;;;;;;9.72;57.92;101611.00;5111016;28;20724;-76
2023/01/15 11:54:24;;;;;;;36.10;20.42;;;;;;;9.57;58.06;101600.00;5110057;28;20380;-76
2023/01/15 11:56:50;;;;;;;32.60;20.40;;;;;;;9.59;57.92;101607.81;5111759;28;20474;-76
2023/01/15 11:59:18;;;;;;;34.27;21.47;;;;;;;9.65;58.33;101596.66;5108301;28;20462;-76
2023/01/15 12:01:58;;;;;;;35.35;20.40;;;;;;;9.71;57.59;101595.25;5032142;28;20762;-75
2023/01/15 12:04:52;;;;;;;32.90;20.40;;;;;;;9.79;57.42;101589.25;5105941;28;20456;-75
2023/01/15 12:07:18;;;;;;;34.10;21.58;;;;;;;9.89;57.77;101588.22;5105765;28;20387;-75
2023/01/15 12:09:58;;;;;;;31.87;20.17;;;;;;;9.85;57.08;101583.34;5111015;28;20376;-75
2023/01/15 12:12:40;;;;;;;33.90;19.70;;;;;;;9.80;57.81;101585.63;5109980;28;20939;-75
2023/01/15 12:15:28;;;;;;;33.50;20.58;;;;;;;9.87;57.35;101581.44;5109087;28;20371;-74
2023/01/15 12:18:05;;;;;;;35.08;21.85;;;;;;;9.79;57.64;101571.53;5050730;28;20401;-74